sensor_id;sensor_type;location;lat;lon;timestamp;P1;durP1;ratioP1;P2;durP2;ratioP2
57331;SDS011;43164;50.908;18.092;2022-09-09T00:01:54;16.30;;;8.40;;
57331;SDS011;43164;50.908;18.092;2022-09-09T00:04:59;24.90;;;9.30;;
57331;SDS011;43164;50.908;18.092;2022-09-09T00:07:49;47.40;;;10.10;;
57331;SDS011;43164;50.908;18.092;2022-09-09T00:10:26;48.00;;;11.60;;
57331;SDS011;43164;50.908;18.092;2022-09-09T00:15:59;58.60;;;11.40;;
57331;SDS011;43164;50.908;18.092;2022-09-09T00:19:04;65.00;;;12.00;;
57331;SDS011;43164;50.908;18.092;2022-09-09T00:21:46;66.20;;;13.80;;
57331;SDS011;43164;50.908;18.092;2022-09-09T00:24:23;53.00;;;13.70;;
57331;SDS011;43164;50.908;18.092;2022-09-09T00:27:06;57.80;;;12.20;;
57331;SDS011;43164;50.908;18.092;2022-09-09T00:29:43;57.60;;;12.80;;
57331;SDS011;43164;50.908;18.092;2022-09-09T00:32:41;35.80;;;11.40;;
57331;SDS011;43164;50.908;18.092;2022-09-09T00:37:47;42.70;;;11.00;;
57331;SDS011;43164;50.908;18.092;2022-09-09T00:43:08;38.50;;;12.80;;
57331;SDS011;43164;50.908;18.092;2022-09-09T00:48:54;40.60;;;11.50;;
57331;SDS011;43164;50.908;18.092;2022-09-09T00:54:19;56.50;;;11.90;;
57331;SDS011;43164;50.908;18.092;2022-09-09T00:59:50;48.00;;;11.80;;
57331;SDS011;43164;50.908;18.092;2022-09-09T01:02:27;48.10;;;10.90;;
57331;SDS011;43164;50.908;18.092;2022-09-09T01:05:24;63.20;;;11.30;;
57331;SDS011;43164;50.908;18.092;2022-09-09T01:08:19;50.90;;;10.60;;
57331;SDS011;43164;50.908;18.092;2022-09-09T01:11:07;43.70;;;11.00;;
57331;SDS011;43164;50.908;18.092;2022-09-09T01:13:49;54.60;;;9.60;;
57331;SDS011;43164;50.908;18.092;2022-09-09T01:16:42;53.20;;;10.20;;
57331;SDS011;43164;50.908;18.092;2022-09-09T01:19:18;35.00;;;9.20;;
57331;SDS011;43164;50.908;18.092;2022-09-09T01:22:01;37.20;;;11.30;;
57331;SDS011;43164;50.908;18.092;2022-09-09T01:25:07;26.90;;;10.80;;
57331;SDS011;43164;50.908;18.092;2022-09-09T01:28:03;28.00;;;11.60;;
57331;SDS011;43164;50.908;18.092;2022-09-09T01:30:38;23.80;;;12.00;;
57331;SDS011;43164;50.908;18.092;2022-09-09T01:33:12;27.80;;;13.60;;
57331;SDS011;43164;50.908;18.092;2022-09-09T01:35:57;25.30;;;12.90;;
57331;SDS011;43164;50.908;18.092;2022-09-09T01:38:39;24.30;;;13.00;;
57331;SDS011;43164;50.908;18.092;2022-09-09T01:41:16;22.90;;;12.20;;
57331;SDS011;43164;50.908;18.092;2022-09-09T01:43:47;21.60;;;12.30;;
57331;SDS011;43164;50.908;18.092;2022-09-09T01:46:17;24.60;;;13.90;;
57331;SDS011;43164;50.908;18.092;2022-09-09T01:48:50;23.30;;;12.30;;
57331;SDS011;43164;50.908;18.092;2022-09-09T01:51:20;21.70;;;11.40;;
57331;SDS011;43164;50.908;18.092;2022-09-09T01:53:50;24.00;;;10.90;;
57331;SDS011;43164;50.908;18.092;2022-09-09T01:59:42;52.40;;;11.30;;
57331;SDS011;43164;50.908;18.092;2022-09-09T02:02:17;39.30;;;11.20;;
57331;SDS011;43164;50.908;18.092;2022-09-09T02:05:11;34.80;;;12.70;;
57331;SDS011;43164;50.908;18.092;2022-09-09T02:08:05;25.30;;;13.10;;
57331;SDS011;43164;50.908;18.092;2022-09-09T02:10:45;30.20;;;14.20;;
57331;SDS011;43164;50.908;18.092;2022-09-09T02:13:17;25.80;;;14.10;;
57331;SDS011;43164;50.908;18.092;2022-09-09T02:15:58;27.20;;;14.90;;
57331;SDS011;43164;50.908;18.092;2022-09-09T02:18:50;24.90;;;14.60;;
57331;SDS011;43164;50.908;18.092;2022-09-09T02:21:43;24.20;;;14.20;;
57331;SDS011;43164;50.908;18.092;2022-09-09T02:24:14;23.70;;;13.90;;
57331;SDS011;43164;50.908;18.092;2022-09-09T02:26:46;26.40;;;14.40;;
57331;SDS011;43164;50.908;18.092;2022-09-09T02:29:31;23.70;;;13.50;;
57331;SDS011;43164;50.908;18.092;2022-09-09T02:32:06;21.80;;;13.20;;
57331;SDS011;43164;50.908;18.092;2022-09-09T02:34:45;23.50;;;12.80;;
57331;SDS011;43164;50.908;18.092;2022-09-09T02:37:25;31.80;;;13.00;;
57331;SDS011;43164;50.908;18.092;2022-09-09T02:39:57;29.60;;;12.50;;
57331;SDS011;43164;50.908;18.092;2022-09-09T02:42:26;77.00;;;13.00;;
57331;SDS011;43164;50.908;18.092;2022-09-09T02:44:55;24.00;;;12.30;;
57331;SDS011;43164;50.908;18.092;2022-09-09T02:47:36;19.90;;;12.10;;
57331;SDS011;43164;50.908;18.092;2022-09-09T02:50:13;28.60;;;11.40;;
57331;SDS011;43164;50.908;18.092;2022-09-09T02:52:53;42.60;;;11.30;;
57331;SDS011;43164;50.908;18.092;2022-09-09T02:58:08;162.70;;;12.60;;
57331;SDS011;43164;50.908;18.092;2022-09-09T03:00:42;43.90;;;10.60;;
57331;SDS011;43164;50.908;18.092;2022-09-09T03:03:11;32.30;;;9.40;;
57331;SDS011;43164;50.908;18.092;2022-09-09T03:05:39;81.70;;;12.10;;
57331;SDS011;43164;50.908;18.092;2022-09-09T03:08:10;19.70;;;9.10;;
57331;SDS011;43164;50.908;18.092;2022-09-09T03:10:39;16.60;;;9.70;;
57331;SDS011;43164;50.908;18.092;2022-09-09T03:13:10;17.20;;;9.60;;
57331;SDS011;43164;50.908;18.092;2022-09-09T03:15:42;21.60;;;9.60;;
57331;SDS011;43164;50.908;18.092;2022-09-09T03:18:15;14.00;;;8.40;;
57331;SDS011;43164;50.908;18.092;2022-09-09T03:20:47;13.20;;;7.50;;
57331;SDS011;43164;50.908;18.092;2022-09-09T03:23:16;13.90;;;8.90;;
57331;SDS011;43164;50.908;18.092;2022-09-09T03:25:47;12.70;;;7.80;;
57331;SDS011;43164;50.908;18.092;2022-09-09T03:28:18;18.00;;;8.50;;
57331;SDS011;43164;50.908;18.092;2022-09-09T03:30:48;14.80;;;8.20;;
57331;SDS011;43164;50.908;18.092;2022-09-09T03:33:17;11.90;;;7.20;;
57331;SDS011;43164;50.908;18.092;2022-09-09T03:35:46;17.10;;;9.10;;
57331;SDS011;43164;50.908;18.092;2022-09-09T03:38:20;13.90;;;7.80;;
57331;SDS011;43164;50.908;18.092;2022-09-09T03:40:54;131.10;;;12.80;;
57331;SDS011;43164;50.908;18.092;2022-09-09T03:43:28;35.40;;;8.30;;
57331;SDS011;43164;50.908;18.092;2022-09-09T03:46:02;21.30;;;7.00;;
57331;SDS011;43164;50.908;18.092;2022-09-09T03:48:32;18.50;;;7.20;;
57331;SDS011;43164;50.908;18.092;2022-09-09T03:51:00;47.10;;;9.30;;
57331;SDS011;43164;50.908;18.092;2022-09-09T03:53:30;13.80;;;7.60;;
57331;SDS011;43164;50.908;18.092;2022-09-09T03:55:59;56.60;;;10.90;;
57331;SDS011;43164;50.908;18.092;2022-09-09T03:58:27;12.60;;;6.50;;
57331;SDS011;43164;50.908;18.092;2022-09-09T04:01:00;13.00;;;7.00;;
57331;SDS011;43164;50.908;18.092;2022-09-09T04:03:30;27.20;;;6.00;;
57331;SDS011;43164;50.908;18.092;2022-09-09T04:06:06;12.00;;;5.40;;
57331;SDS011;43164;50.908;18.092;2022-09-09T04:08:37;11.00;;;6.10;;
57331;SDS011;43164;50.908;18.092;2022-09-09T04:11:07;18.70;;;5.90;;
57331;SDS011;43164;50.908;18.092;2022-09-09T04:13:37;21.10;;;6.30;;
57331;SDS011;43164;50.908;18.092;2022-09-09T04:16:14;27.60;;;5.10;;
57331;SDS011;43164;50.908;18.092;2022-09-09T04:18:46;43.30;;;7.90;;
57331;SDS011;43164;50.908;18.092;2022-09-09T04:21:16;48.30;;;8.30;;
57331;SDS011;43164;50.908;18.092;2022-09-09T04:23:44;11.10;;;5.90;;
57331;SDS011;43164;50.908;18.092;2022-09-09T04:26:13;9.40;;;5.00;;
57331;SDS011;43164;50.908;18.092;2022-09-09T04:28:42;9.10;;;4.10;;
57331;SDS011;43164;50.908;18.092;2022-09-09T04:31:20;7.20;;;3.70;;
57331;SDS011;43164;50.908;18.092;2022-09-09T04:33:50;15.90;;;3.90;;
57331;SDS011;43164;50.908;18.092;2022-09-09T04:36:18;29.80;;;4.10;;
57331;SDS011;43164;50.908;18.092;2022-09-09T04:38:47;10.80;;;3.70;;
57331;SDS011;43164;50.908;18.092;2022-09-09T04:41:19;10.20;;;4.60;;
57331;SDS011;43164;50.908;18.092;2022-09-09T04:43:48;11.90;;;5.20;;
57331;SDS011;43164;50.908;18.092;2022-09-09T04:46:17;16.10;;;4.60;;
57331;SDS011;43164;50.908;18.092;2022-09-09T04:48:46;36.40;;;4.60;;
57331;SDS011;43164;50.908;18.092;2022-09-09T04:51:17;26.80;;;4.90;;
57331;SDS011;43164;50.908;18.092;2022-09-09T04:53:47;16.70;;;3.80;;
57331;SDS011;43164;50.908;18.092;2022-09-09T04:56:18;10.60;;;4.20;;
57331;SDS011;43164;50.908;18.092;2022-09-09T04:58:48;14.20;;;4.10;;
57331;SDS011;43164;50.908;18.092;2022-09-09T05:01:19;11.00;;;4.20;;
57331;SDS011;43164;50.908;18.092;2022-09-09T05:03:55;4.90;;;2.80;;
57331;SDS011;43164;50.908;18.092;2022-09-09T05:06:24;3.50;;;1.90;;
57331;SDS011;43164;50.908;18.092;2022-09-09T05:08:53;3.30;;;2.00;;
57331;SDS011;43164;50.908;18.092;2022-09-09T05:11:23;3.70;;;2.00;;
57331;SDS011;43164;50.908;18.092;2022-09-09T05:13:54;3.30;;;2.00;;
57331;SDS011;43164;50.908;18.092;2022-09-09T05:16:24;3.70;;;1.90;;
57331;SDS011;43164;50.908;18.092;2022-09-09T05:18:53;2.20;;;1.00;;
57331;SDS011;43164;50.908;18.092;2022-09-09T05:21:22;2.30;;;1.10;;
57331;SDS011;43164;50.908;18.092;2022-09-09T05:23:58;2.30;;;1.30;;
57331;SDS011;43164;50.908;18.092;2022-09-09T05:26:27;3.70;;;1.10;;
57331;SDS011;43164;50.908;18.092;2022-09-09T05:29:01;5.00;;;1.90;;
57331;SDS011;43164;50.908;18.092;2022-09-09T05:31:32;5.00;;;2.00;;
57331;SDS011;43164;50.908;18.092;2022-09-09T05:34:01;4.80;;;2.40;;
57331;SDS011;43164;50.908;18.092;2022-09-09T05:36:33;4.20;;;2.40;;
57331;SDS011;43164;50.908;18.092;2022-09-09T05:39:04;4.80;;;2.40;;
57331;SDS011;43164;50.908;18.092;2022-09-09T05:41:33;2.70;;;1.90;;
57331;SDS011;43164;50.908;18.092;2022-09-09T05:44:04;3.70;;;2.50;;
57331;SDS011;43164;50.908;18.092;2022-09-09T05:46:33;4.00;;;2.60;;
57331;SDS011;43164;50.908;18.092;2022-09-09T05:49:03;5.80;;;2.50;;
57331;SDS011;43164;50.908;18.092;2022-09-09T05:51:32;5.50;;;2.60;;
57331;SDS011;43164;50.908;18.092;2022-09-09T05:54:01;5.20;;;3.10;;
57331;SDS011;43164;50.908;18.092;2022-09-09T05:56:29;5.50;;;2.80;;
57331;SDS011;43164;50.908;18.092;2022-09-09T05:58:59;5.30;;;2.70;;
57331;SDS011;43164;50.908;18.092;2022-09-09T06:01:30;7.00;;;2.80;;
57331;SDS011;43164;50.908;18.092;2022-09-09T06:04:00;5.30;;;2.60;;
57331;SDS011;43164;50.908;18.092;2022-09-09T06:06:37;4.80;;;2.20;;
57331;SDS011;43164;50.908;18.092;2022-09-09T06:09:11;5.40;;;2.40;;
57331;SDS011;43164;50.908;18.092;2022-09-09T06:11:41;6.60;;;2.70;;
57331;SDS011;43164;50.908;18.092;2022-09-09T06:14:11;3.90;;;2.20;;
57331;SDS011;43164;50.908;18.092;2022-09-09T06:16:42;6.00;;;3.00;;
57331;SDS011;43164;50.908;18.092;2022-09-09T06:19:14;5.50;;;1.90;;
57331;SDS011;43164;50.908;18.092;2022-09-09T06:21:42;5.10;;;2.20;;
57331;SDS011;43164;50.908;18.092;2022-09-09T06:24:11;4.10;;;2.10;;
57331;SDS011;43164;50.908;18.092;2022-09-09T06:26:40;4.00;;;2.10;;
57331;SDS011;43164;50.908;18.092;2022-09-09T06:29:09;5.00;;;2.70;;
57331;SDS011;43164;50.908;18.092;2022-09-09T06:31:38;5.20;;;2.20;;
57331;SDS011;43164;50.908;18.092;2022-09-09T06:34:16;3.60;;;1.90;;
57331;SDS011;43164;50.908;18.092;2022-09-09T06:36:44;5.40;;;2.10;;
57331;SDS011;43164;50.908;18.092;2022-09-09T06:39:13;4.10;;;1.90;;
57331;SDS011;43164;50.908;18.092;2022-09-09T06:41:42;2.80;;;1.50;;
57331;SDS011;43164;50.908;18.092;2022-09-09T06:44:10;3.80;;;1.70;;
57331;SDS011;43164;50.908;18.092;2022-09-09T06:46:43;3.40;;;1.70;;
57331;SDS011;43164;50.908;18.092;2022-09-09T06:49:17;3.20;;;1.50;;
57331;SDS011;43164;50.908;18.092;2022-09-09T06:51:46;4.20;;;1.70;;
57331;SDS011;43164;50.908;18.092;2022-09-09T06:54:14;3.40;;;1.80;;
57331;SDS011;43164;50.908;18.092;2022-09-09T06:56:42;3.60;;;1.50;;
57331;SDS011;43164;50.908;18.092;2022-09-09T06:59:12;8.40;;;2.50;;
57331;SDS011;43164;50.908;18.092;2022-09-09T07:01:41;4.80;;;1.50;;
57331;SDS011;43164;50.908;18.092;2022-09-09T07:04:15;4.80;;;1.70;;
57331;SDS011;43164;50.908;18.092;2022-09-09T07:06:44;5.10;;;1.30;;
57331;SDS011;43164;50.908;18.092;2022-09-09T07:09:14;4.50;;;1.30;;
57331;SDS011;43164;50.908;18.092;2022-09-09T07:11:43;3.40;;;1.60;;
57331;SDS011;43164;50.908;18.092;2022-09-09T07:14:18;4.30;;;1.50;;
57331;SDS011;43164;50.908;18.092;2022-09-09T07:16:47;3.20;;;1.60;;
57331;SDS011;43164;50.908;18.092;2022-09-09T07:19:17;2.60;;;1.50;;
57331;SDS011;43164;50.908;18.092;2022-09-09T07:21:44;3.80;;;1.50;;
57331;SDS011;43164;50.908;18.092;2022-09-09T07:24:13;4.00;;;1.90;;
57331;SDS011;43164;50.908;18.092;2022-09-09T07:26:43;4.00;;;1.70;;
57331;SDS011;43164;50.908;18.092;2022-09-09T07:29:12;3.80;;;1.70;;
57331;SDS011;43164;50.908;18.092;2022-09-09T07:31:41;3.60;;;1.60;;
57331;SDS011;43164;50.908;18.092;2022-09-09T07:34:09;5.90;;;1.90;;
57331;SDS011;43164;50.908;18.092;2022-09-09T07:36:40;3.00;;;1.60;;
57331;SDS011;43164;50.908;18.092;2022-09-09T07:39:15;5.20;;;1.80;;
57331;SDS011;43164;50.908;18.092;2022-09-09T07:41:46;3.90;;;1.90;;
57331;SDS011;43164;50.908;18.092;2022-09-09T07:44:17;5.80;;;1.80;;
57331;SDS011;43164;50.908;18.092;2022-09-09T07:46:48;5.30;;;1.90;;
57331;SDS011;43164;50.908;18.092;2022-09-09T07:49:18;4.60;;;2.20;;
57331;SDS011;43164;50.908;18.092;2022-09-09T07:51:48;5.90;;;1.90;;
57331;SDS011;43164;50.908;18.092;2022-09-09T07:54:18;2.90;;;1.70;;
57331;SDS011;43164;50.908;18.092;2022-09-09T07:56:51;4.30;;;2.00;;
57331;SDS011;43164;50.908;18.092;2022-09-09T07:59:20;4.40;;;2.10;;
57331;SDS011;43164;50.908;18.092;2022-09-09T08:01:49;4.50;;;1.70;;
57331;SDS011;43164;50.908;18.092;2022-09-09T08:04:22;5.10;;;2.00;;
57331;SDS011;43164;50.908;18.092;2022-09-09T08:06:53;4.10;;;1.50;;
57331;SDS011;43164;50.908;18.092;2022-09-09T08:09:25;8.90;;;1.60;;
57331;SDS011;43164;50.908;18.092;2022-09-09T08:11:55;3.20;;;1.30;;
57331;SDS011;43164;50.908;18.092;2022-09-09T08:14:28;2.50;;;1.20;;
57331;SDS011;43164;50.908;18.092;2022-09-09T08:16:56;4.10;;;1.30;;
57331;SDS011;43164;50.908;18.092;2022-09-09T08:23:31;2.30;;;0.80;;
57331;SDS011;43164;50.908;18.092;2022-09-09T08:26:09;4.10;;;1.10;;
57331;SDS011;43164;50.908;18.092;2022-09-09T08:28:42;5.90;;;1.00;;
57331;SDS011;43164;50.908;18.092;2022-09-09T08:33:47;2.20;;;0.70;;
57331;SDS011;43164;50.908;18.092;2022-09-09T08:36:22;3.50;;;0.90;;
57331;SDS011;43164;50.908;18.092;2022-09-09T08:38:53;1.50;;;0.80;;
57331;SDS011;43164;50.908;18.092;2022-09-09T08:44:35;1.20;;;0.70;;
57331;SDS011;43164;50.908;18.092;2022-09-09T08:47:30;4.50;;;0.70;;
57331;SDS011;43164;50.908;18.092;2022-09-09T08:52:57;3.00;;;0.90;;
57331;SDS011;43164;50.908;18.092;2022-09-09T09:05:17;2.70;;;0.90;;
57331;SDS011;43164;50.908;18.092;2022-09-09T09:10:44;2.40;;;0.80;;
57331;SDS011;43164;50.908;18.092;2022-09-09T09:19:19;5.00;;;0.90;;
57331;SDS011;43164;50.908;18.092;2022-09-09T09:25:02;3.30;;;0.90;;
57331;SDS011;43164;50.908;18.092;2022-09-09T09:39:46;4.40;;;1.10;;
57331;SDS011;43164;50.908;18.092;2022-09-09T09:42:17;2.80;;;1.00;;
57331;SDS011;43164;50.908;18.092;2022-09-09T09:44:47;2.50;;;1.10;;
57331;SDS011;43164;50.908;18.092;2022-09-09T09:47:18;3.20;;;1.00;;
57331;SDS011;43164;50.908;18.092;2022-09-09T09:49:57;2.80;;;1.00;;
57331;SDS011;43164;50.908;18.092;2022-09-09T09:52:28;4.10;;;1.50;;
57331;SDS011;43164;50.908;18.092;2022-09-09T09:55:12;3.70;;;2.00;;
57331;SDS011;43164;50.908;18.092;2022-09-09T09:57:43;5.40;;;1.40;;
57331;SDS011;43164;50.908;18.092;2022-09-09T10:00:17;5.80;;;1.40;;
57331;SDS011;43164;50.908;18.092;2022-09-09T10:02:48;2.30;;;1.10;;
57331;SDS011;43164;50.908;18.092;2022-09-09T10:05:21;2.00;;;0.90;;
57331;SDS011;43164;50.908;18.092;2022-09-09T10:08:10;2.80;;;0.90;;
57331;SDS011;43164;50.908;18.092;2022-09-09T10:19:33;3.00;;;0.90;;
57331;SDS011;43164;50.908;18.092;2022-09-09T10:24:54;1.80;;;0.60;;
57331;SDS011;43164;50.908;18.092;2022-09-09T10:27:51;1.90;;;0.60;;
57331;SDS011;43164;50.908;18.092;2022-09-09T10:33:45;4.60;;;0.90;;
57331;SDS011;43164;50.908;18.092;2022-09-09T10:36:26;3.20;;;0.70;;
57331;SDS011;43164;50.908;18.092;2022-09-09T10:39:01;2.60;;;0.60;;
57331;SDS011;43164;50.908;18.092;2022-09-09T10:42:06;3.40;;;0.80;;
57331;SDS011;43164;50.908;18.092;2022-09-09T10:45:02;3.00;;;0.60;;
57331;SDS011;43164;50.908;18.092;2022-09-09T10:50:35;2.10;;;0.80;;
57331;SDS011;43164;50.908;18.092;2022-09-09T10:53:14;1.90;;;0.70;;
57331;SDS011;43164;50.908;18.092;2022-09-09T10:55:56;2.70;;;0.60;;
57331;SDS011;43164;50.908;18.092;2022-09-09T10:58:39;2.20;;;0.40;;
57331;SDS011;43164;50.908;18.092;2022-09-09T11:01:21;1.00;;;0.50;;
57331;SDS011;43164;50.908;18.092;2022-09-09T11:03:57;2.40;;;0.50;;
57331;SDS011;43164;50.908;18.092;2022-09-09T11:06:41;2.90;;;0.70;;
57331;SDS011;43164;50.908;18.092;2022-09-09T11:09:15;1.20;;;0.60;;
57331;SDS011;43164;50.908;18.092;2022-09-09T11:11:51;5.10;;;0.80;;
57331;SDS011;43164;50.908;18.092;2022-09-09T11:14:28;1.30;;;0.50;;
57331;SDS011;43164;50.908;18.092;2022-09-09T11:17:20;4.10;;;0.60;;
57331;SDS011;43164;50.908;18.092;2022-09-09T11:20:01;1.90;;;0.60;;
57331;SDS011;43164;50.908;18.092;2022-09-09T11:22:33;4.30;;;0.60;;
57331;SDS011;43164;50.908;18.092;2022-09-09T11:25:30;2.80;;;0.40;;
57331;SDS011;43164;50.908;18.092;2022-09-09T11:31:07;1.40;;;0.50;;
57331;SDS011;43164;50.908;18.092;2022-09-09T11:33:58;3.30;;;0.40;;
57331;SDS011;43164;50.908;18.092;2022-09-09T11:42:45;2.10;;;0.50;;
57331;SDS011;43164;50.908;18.092;2022-09-09T11:45:21;1.30;;;0.40;;
57331;SDS011;43164;50.908;18.092;2022-09-09T11:47:56;2.00;;;0.70;;
57331;SDS011;43164;50.908;18.092;2022-09-09T11:53:14;2.00;;;0.50;;
57331;SDS011;43164;50.908;18.092;2022-09-09T11:59:02;2.00;;;0.60;;
57331;SDS011;43164;50.908;18.092;2022-09-09T12:01:34;1.50;;;0.40;;
57331;SDS011;43164;50.908;18.092;2022-09-09T12:04:11;2.00;;;0.40;;
57331;SDS011;43164;50.908;18.092;2022-09-09T12:09:43;1.80;;;0.30;;
57331;SDS011;43164;50.908;18.092;2022-09-09T12:12:23;1.60;;;0.40;;
57331;SDS011;43164;50.908;18.092;2022-09-09T12:15:16;1.20;;;0.40;;
57331;SDS011;43164;50.908;18.092;2022-09-09T12:17:51;3.10;;;0.40;;
57331;SDS011;43164;50.908;18.092;2022-09-09T12:20:36;3.10;;;0.50;;
57331;SDS011;43164;50.908;18.092;2022-09-09T12:23:25;2.40;;;0.40;;
57331;SDS011;43164;50.908;18.092;2022-09-09T12:32:21;2.70;;;0.50;;
57331;SDS011;43164;50.908;18.092;2022-09-09T12:34:55;1.60;;;0.40;;
57331;SDS011;43164;50.908;18.092;2022-09-09T12:37:56;3.00;;;0.60;;
57331;SDS011;43164;50.908;18.092;2022-09-09T12:40:30;4.60;;;0.60;;
57331;SDS011;43164;50.908;18.092;2022-09-09T12:43:15;2.80;;;0.40;;
57331;SDS011;43164;50.908;18.092;2022-09-09T12:45:48;5.10;;;0.50;;
57331;SDS011;43164;50.908;18.092;2022-09-09T12:48:30;2.70;;;0.60;;
57331;SDS011;43164;50.908;18.092;2022-09-09T12:51:04;1.90;;;0.50;;
57331;SDS011;43164;50.908;18.092;2022-09-09T12:53:42;1.90;;;0.60;;
57331;SDS011;43164;50.908;18.092;2022-09-09T12:56:23;3.60;;;0.40;;
57331;SDS011;43164;50.908;18.092;2022-09-09T12:58:58;1.90;;;0.60;;
57331;SDS011;43164;50.908;18.092;2022-09-09T13:01:29;3.30;;;0.60;;
57331;SDS011;43164;50.908;18.092;2022-09-09T13:04:19;1.90;;;0.50;;
57331;SDS011;43164;50.908;18.092;2022-09-09T13:06:53;2.00;;;0.60;;
57331;SDS011;43164;50.908;18.092;2022-09-09T13:09:22;2.80;;;0.40;;
57331;SDS011;43164;50.908;18.092;2022-09-09T13:11:51;1.80;;;0.50;;
57331;SDS011;43164;50.908;18.092;2022-09-09T13:14:32;2.10;;;0.50;;
57331;SDS011;43164;50.908;18.092;2022-09-09T13:17:06;5.20;;;0.60;;
57331;SDS011;43164;50.908;18.092;2022-09-09T13:19:45;2.30;;;0.50;;
57331;SDS011;43164;50.908;18.092;2022-09-09T13:22:35;1.80;;;0.40;;
57331;SDS011;43164;50.908;18.092;2022-09-09T13:28:02;4.20;;;0.50;;
57331;SDS011;43164;50.908;18.092;2022-09-09T13:30:33;2.40;;;0.40;;
57331;SDS011;43164;50.908;18.092;2022-09-09T13:41:25;1.90;;;0.50;;
57331;SDS011;43164;50.908;18.092;2022-09-09T13:43:59;2.30;;;0.40;;
57331;SDS011;43164;50.908;18.092;2022-09-09T13:46:37;3.40;;;0.60;;
57331;SDS011;43164;50.908;18.092;2022-09-09T13:51:50;2.30;;;0.40;;
57331;SDS011;43164;50.908;18.092;2022-09-09T13:57:02;1.80;;;0.50;;
57331;SDS011;43164;50.908;18.092;2022-09-09T13:59:31;3.10;;;0.50;;
57331;SDS011;43164;50.908;18.092;2022-09-09T14:02:21;1.90;;;0.60;;
57331;SDS011;43164;50.908;18.092;2022-09-09T14:05:01;2.80;;;0.50;;
57331;SDS011;43164;50.908;18.092;2022-09-09T14:07:32;1.90;;;0.60;;
57331;SDS011;43164;50.908;18.092;2022-09-09T14:10:01;2.40;;;0.50;;
57331;SDS011;43164;50.908;18.092;2022-09-09T14:12:30;2.90;;;0.60;;
57331;SDS011;43164;50.908;18.092;2022-09-09T14:14:58;1.80;;;0.50;;
57331;SDS011;43164;50.908;18.092;2022-09-09T14:17:30;4.10;;;0.60;;
57331;SDS011;43164;50.908;18.092;2022-09-09T14:19:58;3.60;;;0.60;;
57331;SDS011;43164;50.908;18.092;2022-09-09T14:22:26;1.90;;;0.40;;
57331;SDS011;43164;50.908;18.092;2022-09-09T14:24:55;2.00;;;0.40;;
57331;SDS011;43164;50.908;18.092;2022-09-09T14:27:24;3.10;;;0.50;;
57331;SDS011;43164;50.908;18.092;2022-09-09T14:29:53;2.50;;;0.70;;
57331;SDS011;43164;50.908;18.092;2022-09-09T14:32:22;2.40;;;0.50;;
57331;SDS011;43164;50.908;18.092;2022-09-09T14:34:51;2.70;;;0.50;;
57331;SDS011;43164;50.908;18.092;2022-09-09T14:37:19;2.40;;;0.70;;
57331;SDS011;43164;50.908;18.092;2022-09-09T14:39:55;2.40;;;0.60;;
57331;SDS011;43164;50.908;18.092;2022-09-09T14:42:24;3.00;;;0.50;;
57331;SDS011;43164;50.908;18.092;2022-09-09T14:44:53;3.30;;;0.60;;
57331;SDS011;43164;50.908;18.092;2022-09-09T14:47:22;2.00;;;0.40;;
57331;SDS011;43164;50.908;18.092;2022-09-09T14:49:51;2.80;;;0.80;;
57331;SDS011;43164;50.908;18.092;2022-09-09T14:52:19;3.40;;;0.70;;
57331;SDS011;43164;50.908;18.092;2022-09-09T14:54:48;2.00;;;0.50;;
57331;SDS011;43164;50.908;18.092;2022-09-09T14:57:18;3.60;;;0.70;;
57331;SDS011;43164;50.908;18.092;2022-09-09T14:59:47;1.90;;;0.50;;
57331;SDS011;43164;50.908;18.092;2022-09-09T15:02:16;3.50;;;0.40;;
57331;SDS011;43164;50.908;18.092;2022-09-09T15:04:45;2.60;;;0.60;;
57331;SDS011;43164;50.908;18.092;2022-09-09T15:07:14;4.00;;;0.60;;
57331;SDS011;43164;50.908;18.092;2022-09-09T15:09:42;3.70;;;0.50;;
57331;SDS011;43164;50.908;18.092;2022-09-09T15:12:12;2.60;;;0.60;;
57331;SDS011;43164;50.908;18.092;2022-09-09T15:14:45;3.90;;;0.60;;
57331;SDS011;43164;50.908;18.092;2022-09-09T15:17:14;2.00;;;0.60;;
57331;SDS011;43164;50.908;18.092;2022-09-09T15:19:43;4.10;;;0.50;;
57331;SDS011;43164;50.908;18.092;2022-09-09T15:22:11;5.10;;;0.60;;
57331;SDS011;43164;50.908;18.092;2022-09-09T15:24:41;1.70;;;0.40;;
57331;SDS011;43164;50.908;18.092;2022-09-09T15:27:10;3.20;;;0.50;;
57331;SDS011;43164;50.908;18.092;2022-09-09T15:29:38;3.40;;;0.70;;
57331;SDS011;43164;50.908;18.092;2022-09-09T15:32:06;2.80;;;0.60;;
57331;SDS011;43164;50.908;18.092;2022-09-09T15:34:35;3.40;;;0.60;;
57331;SDS011;43164;50.908;18.092;2022-09-09T15:37:04;5.10;;;0.70;;
57331;SDS011;43164;50.908;18.092;2022-09-09T15:39:35;6.50;;;0.80;;
57331;SDS011;43164;50.908;18.092;2022-09-09T15:42:03;3.70;;;0.50;;
57331;SDS011;43164;50.908;18.092;2022-09-09T15:44:37;4.40;;;0.50;;
57331;SDS011;43164;50.908;18.092;2022-09-09T15:47:11;4.80;;;0.50;;
57331;SDS011;43164;50.908;18.092;2022-09-09T15:49:40;2.30;;;0.70;;
57331;SDS011;43164;50.908;18.092;2022-09-09T15:52:09;5.90;;;0.70;;
57331;SDS011;43164;50.908;18.092;2022-09-09T15:54:38;5.70;;;0.80;;
57331;SDS011;43164;50.908;18.092;2022-09-09T15:57:07;2.40;;;0.60;;
57331;SDS011;43164;50.908;18.092;2022-09-09T15:59:41;2.90;;;0.70;;
57331;SDS011;43164;50.908;18.092;2022-09-09T16:02:11;2.90;;;0.60;;
57331;SDS011;43164;50.908;18.092;2022-09-09T16:04:40;3.90;;;0.90;;
57331;SDS011;43164;50.908;18.092;2022-09-09T16:07:07;3.10;;;0.80;;
57331;SDS011;43164;50.908;18.092;2022-09-09T16:09:35;4.40;;;0.70;;
57331;SDS011;43164;50.908;18.092;2022-09-09T16:12:03;3.50;;;0.70;;
57331;SDS011;43164;50.908;18.092;2022-09-09T16:14:43;3.00;;;0.80;;
57331;SDS011;43164;50.908;18.092;2022-09-09T16:17:12;2.90;;;0.80;;
57331;SDS011;43164;50.908;18.092;2022-09-09T16:19:41;2.10;;;0.80;;
57331;SDS011;43164;50.908;18.092;2022-09-09T16:22:09;2.80;;;0.90;;
57331;SDS011;43164;50.908;18.092;2022-09-09T16:24:37;3.50;;;0.90;;
57331;SDS011;43164;50.908;18.092;2022-09-09T16:27:05;3.20;;;1.10;;
57331;SDS011;43164;50.908;18.092;2022-09-09T16:29:34;3.90;;;1.00;;
57331;SDS011;43164;50.908;18.092;2022-09-09T16:32:03;6.90;;;1.80;;
57331;SDS011;43164;50.908;18.092;2022-09-09T16:34:31;5.80;;;1.30;;
57331;SDS011;43164;50.908;18.092;2022-09-09T16:37:00;3.50;;;1.40;;
57331;SDS011;43164;50.908;18.092;2022-09-09T16:39:29;5.40;;;1.50;;
57331;SDS011;43164;50.908;18.092;2022-09-09T16:41:57;4.10;;;1.40;;
57331;SDS011;43164;50.908;18.092;2022-09-09T16:44:25;6.50;;;1.40;;
57331;SDS011;43164;50.908;18.092;2022-09-09T16:46:53;3.70;;;1.20;;
57331;SDS011;43164;50.908;18.092;2022-09-09T16:49:26;5.00;;;1.40;;
57331;SDS011;43164;50.908;18.092;2022-09-09T16:51:56;3.90;;;1.30;;
57331;SDS011;43164;50.908;18.092;2022-09-09T16:54:25;4.60;;;1.30;;
57331;SDS011;43164;50.908;18.092;2022-09-09T16:56:54;3.20;;;1.10;;
57331;SDS011;43164;50.908;18.092;2022-09-09T16:59:22;4.20;;;1.40;;
57331;SDS011;43164;50.908;18.092;2022-09-09T17:01:51;4.40;;;1.20;;
57331;SDS011;43164;50.908;18.092;2022-09-09T17:04:21;6.20;;;1.40;;
57331;SDS011;43164;50.908;18.092;2022-09-09T17:06:51;5.60;;;1.20;;
57331;SDS011;43164;50.908;18.092;2022-09-09T17:09:20;8.80;;;1.80;;
57331;SDS011;43164;50.908;18.092;2022-09-09T17:11:50;3.80;;;1.50;;
57331;SDS011;43164;50.908;18.092;2022-09-09T17:14:18;4.20;;;1.20;;
57331;SDS011;43164;50.908;18.092;2022-09-09T17:16:47;5.00;;;1.60;;